Terminal Aerodrome Forecast
Issued by NWS Sioux Falls, SD

Home | Current Version | Previous Version | Text Only | Print | Product List | Glossary On
Versions: 1 2 3 4 5 6 7 8 9 10 11 12 13
000
FTUS43 KFSD 232320
TAFHON
TAF
KHON 232320Z 2400/2424 16011KT P6SM OVC035
     FM240600 11009KT P6SM OVC025
     FM240800 10007KT 6SM -SHRA BR OVC015
     FM241100 10011KT 4SM SHRA BR OVC008
     FM241600 12011KT P6SM OVC015
     FM242100 10006KT P6SM OVC035=

USA.gov is the U.S. government's official web portal to all federal, state and local government web resources and services.